createdAt,value
2019-03-01T00:03:45.182Z,7.50
2019-03-01T00:09:12.969Z,6.00
2019-03-01T00:15:00.950Z,5.20
2019-03-01T00:20:47.550Z,7.75
2019-03-01T00:26:00.376Z,4.75
2019-03-01T00:31:42.534Z,5.80
2019-03-01T00:37:14.947Z,6.75
2019-03-01T00:42:56.274Z,6.00
2019-03-01T00:48:00.317Z,7.25
2019-03-01T00:53:04.581Z,7.00
2019-03-01T00:58:08.700Z,6.00
2019-03-01T01:03:12.788Z,6.00
2019-03-01T01:08:16.854Z,5.75
2019-03-01T01:13:22.305Z,6.00
2019-03-01T01:18:26.366Z,6.60
2019-03-01T01:23:30.404Z,6.20
2019-03-01T01:28:34.441Z,5.80
2019-03-01T01:33:38.543Z,5.40
2019-03-01T01:38:42.588Z,5.00
2019-03-01T01:43:46.751Z,3.75
2019-03-01T01:48:50.847Z,6.75
2019-03-01T01:53:54.863Z,6.20
2019-03-01T01:58:58.955Z,6.00
2019-03-01T02:04:03.136Z,5.60
2019-03-01T02:09:25.062Z,5.80
2019-03-01T02:14:29.177Z,4.80
2019-03-01T02:19:33.266Z,5.75
2019-03-01T02:24:37.380Z,5.00
2019-03-01T02:29:41.475Z,5.00
2019-03-01T02:34:46.879Z,4.40
2019-03-01T02:39:51.058Z,4.75
2019-03-01T02:44:55.089Z,5.00
2019-03-01T02:49:59.186Z,4.00
2019-03-01T02:55:03.621Z,4.75
2019-03-01T03:00:10.927Z,5.40
2019-03-01T03:05:15.508Z,5.00
2019-03-01T03:10:19.686Z,4.00
2019-03-01T03:15:35.554Z,4.60
2019-03-01T03:20:39.558Z,4.50
2019-03-01T03:25:43.605Z,4.00
2019-03-01T03:30:47.727Z,4.50
2019-03-01T03:35:51.763Z,4.25
2019-03-01T03:40:55.785Z,3.25
2019-03-01T03:45:59.828Z,3.00
2019-03-01T03:51:03.879Z,3.40
2019-03-01T03:56:07.964Z,4.75
2019-03-01T04:01:12.239Z,4.00
2019-03-01T04:06:16.416Z,4.00
2019-03-01T04:11:20.478Z,4.80
2019-03-01T04:16:24.574Z,3.75
2019-03-01T04:21:28.668Z,4.00
2019-03-01T04:26:32.748Z,4.50
2019-03-01T04:31:36.805Z,2.50
2019-03-01T04:36:40.817Z,4.25
2019-03-01T04:41:44.837Z,3.00
2019-03-01T04:46:48.872Z,2.50
2019-03-01T04:51:52.930Z,3.20
2019-03-01T04:56:56.966Z,2.00
2019-03-01T05:02:01.022Z,3.20
2019-03-01T05:07:05.050Z,4.00
2019-03-01T05:12:09.129Z,4.00
2019-03-01T05:17:13.207Z,3.00
2019-03-01T05:22:17.323Z,4.00
2019-03-01T05:27:21.353Z,3.00
2019-03-01T05:32:25.382Z,3.33
2019-03-01T05:37:29.498Z,3.25
2019-03-01T05:42:33.582Z,2.00
2019-03-01T05:47:37.613Z,3.00
2019-03-01T05:52:41.756Z,4.00
2019-03-01T05:58:26.983Z,3.25
2019-03-01T06:03:54.812Z,3.00
2019-03-01T06:09:25.686Z,4.00
2019-03-01T06:14:56.206Z,3.40
2019-03-01T06:20:33.951Z,4.25
2019-03-01T06:26:18.482Z,4.00
2019-03-01T06:31:39.847Z,3.00
2019-03-01T06:37:17.456Z,4.25
2019-03-01T06:43:12.349Z,3.25
2019-03-01T06:48:26.898Z,3.00
2019-03-01T06:53:30.919Z,3.00
2019-03-01T06:58:44.547Z,3.00
2019-03-01T07:03:56.749Z,4.00
2019-03-01T07:09:00.878Z,4.00
2019-03-01T07:14:04.961Z,2.00
2019-03-01T07:19:08.975Z,3.00
2019-03-01T07:24:13.076Z,2.50
2019-03-01T07:29:17.156Z,3.60
2019-03-01T07:34:21.223Z,4.00
2019-03-01T07:39:25.286Z,3.00
2019-03-01T07:44:29.317Z,3.20
2019-03-01T07:49:33.585Z,2.00
2019-03-01T07:54:37.626Z,10.20
2019-03-01T07:59:42.161Z,10.25
2019-03-01T08:04:46.221Z,9.60
2019-03-01T08:09:50.349Z,8.00
2019-03-01T08:14:54.376Z,8.00
2019-03-01T08:19:59.833Z,6.25
2019-03-01T08:25:04.056Z,5.00
2019-03-01T08:30:11.345Z,5.00
2019-03-01T08:35:15.455Z,5.00
2019-03-01T08:40:19.619Z,4.80
2019-03-01T08:45:23.669Z,2.60
2019-03-01T08:50:27.690Z,3.75
2019-03-01T08:55:31.880Z,4.00
2019-03-01T09:00:36.068Z,4.00
2019-03-01T09:05:40.100Z,2.25
2019-03-01T09:10:44.205Z,2.00
2019-03-01T09:15:49.457Z,3.40
2019-03-01T09:20:54.045Z,3.00
2019-03-01T09:25:58.053Z,2.00
2019-03-01T09:31:02.163Z,2.00
2019-03-01T09:36:10.326Z,2.00
2019-03-01T09:41:14.547Z,2.50
2019-03-01T09:46:20.958Z,3.00
2019-03-01T09:51:24.721Z,1.50
2019-03-01T09:56:28.867Z,3.00
2019-03-01T10:01:33.207Z,2.00
2019-03-01T10:06:38.337Z,1.20
2019-03-01T10:11:42.744Z,3.00
2019-03-01T10:16:46.767Z,2.00
2019-03-01T10:21:50.965Z,2.00
2019-03-01T10:26:54.979Z,2.00
2019-03-01T10:31:59.049Z,3.00
2019-03-01T10:37:03.229Z,3.80
2019-03-01T10:42:07.226Z,1.50
2019-03-01T10:47:11.261Z,1.25
2019-03-01T10:52:15.432Z,2.20
2019-03-01T10:57:19.449Z,2.40
2019-03-01T11:02:23.573Z,3.80
2019-03-01T11:07:27.764Z,2.00
2019-03-01T11:12:31.796Z,2.50
2019-03-01T11:17:35.839Z,1.00
2019-03-01T11:22:39.847Z,3.75
2019-03-01T11:27:44.007Z,2.50
2019-03-01T11:32:48.011Z,3.00
2019-03-01T11:37:52.095Z,1.80
2019-03-01T11:42:56.199Z,1.40
2019-03-01T11:48:00.419Z,2.00
2019-03-01T11:53:04.514Z,1.20
2019-03-01T11:58:08.716Z,2.00
2019-03-01T12:03:15.241Z,1.00
2019-03-01T12:08:18.759Z,1.25
2019-03-01T12:13:23.089Z,2.00
2019-03-01T12:18:27.097Z,2.20
2019-03-01T12:23:31.322Z,3.00
2019-03-01T12:28:35.351Z,1.00
2019-03-01T12:33:40.478Z,2.60
2019-03-01T12:39:35.641Z,3.00
2019-03-01T12:44:41.659Z,2.80
2019-03-01T12:49:46.118Z,3.20
2019-03-01T12:54:50.213Z,3.00
2019-03-01T12:59:54.306Z,3.50
2019-03-01T13:04:58.481Z,3.40
2019-03-01T13:10:06.808Z,3.00
2019-03-01T13:15:13.876Z,3.60
2019-03-01T13:20:17.436Z,4.25
2019-03-01T13:25:21.699Z,4.00
2019-03-01T13:30:25.965Z,4.25
2019-03-01T13:35:30.175Z,4.00
2019-03-01T13:40:34.444Z,3.00
2019-03-01T13:45:38.656Z,3.00
2019-03-01T13:50:42.823Z,3.00
2019-03-01T13:55:46.909Z,3.80
2019-03-01T14:00:51.024Z,4.00
2019-03-01T14:05:55.883Z,3.25
2019-03-01T14:49:18.544Z,2.60
2019-03-01T15:33:35.045Z,2.00
2019-03-01T15:38:44.187Z,3.00
2019-03-01T15:43:50.334Z,1.00
2019-03-01T15:49:05.047Z,2.00
2019-03-01T15:54:07.870Z,2.20
2019-03-01T15:59:12.359Z,2.00
2019-03-01T16:04:16.825Z,2.00
2019-03-01T16:09:21.738Z,2.00
2019-03-01T16:14:27.355Z,1.67
2019-03-01T16:19:31.862Z,2.00
2019-03-01T16:24:36.365Z,1.00
2019-03-01T16:29:42.259Z,2.00
2019-03-01T16:34:47.035Z,1.40
2019-03-01T16:39:51.713Z,1.00
2019-03-01T16:44:59.432Z,1.80
2019-03-01T16:50:06.504Z,1.75
2019-03-01T17:00:50.805Z,1.40
2019-03-01T17:11:32.392Z,1.25
2019-03-01T17:16:36.922Z,2.00
2019-03-01T17:21:43.823Z,2.75
2019-03-01T17:26:48.109Z,2.00
2019-03-01T17:31:54.619Z,3.25
2019-03-01T17:37:41.427Z,2.20
2019-03-01T17:42:21.528Z,2.00
2019-03-01T17:47:27.195Z,3.00
2019-03-01T17:52:33.731Z,2.00
2019-03-01T17:57:37.723Z,3.00
2019-03-01T18:02:42.047Z,3.00
2019-03-01T18:07:46.641Z,3.00
2019-03-01T18:12:53.072Z,2.75
2019-03-01T18:23:14.653Z,2.20
2019-03-01T18:28:28.388Z,2.00
2019-03-01T18:44:41.509Z,3.00
2019-03-01T18:50:15.307Z,3.75
2019-03-01T18:56:08.819Z,3.60
2019-03-01T19:01:19.078Z,2.80
2019-03-01T19:06:24.489Z,3.00
2019-03-01T19:11:29.167Z,2.40
2019-03-01T19:16:35.432Z,3.00
2019-03-01T19:21:39.821Z,3.25
2019-03-01T19:26:43.966Z,2.00
2019-03-01T19:31:48.114Z,3.50
2019-03-01T19:36:52.219Z,2.75
2019-03-01T19:41:58.226Z,2.00
2019-03-01T19:47:02.394Z,3.00
2019-03-01T19:52:09.431Z,3.00
2019-03-01T19:57:12.485Z,3.00
2019-03-01T20:02:16.671Z,3.00
2019-03-01T20:07:20.869Z,3.50
2019-03-01T20:12:25.354Z,3.75
2019-03-01T20:17:33.449Z,4.40
2019-03-01T20:22:36.991Z,3.20
2019-03-01T20:27:41.962Z,3.75
2019-03-01T20:32:47.322Z,3.00
2019-03-01T20:37:52.619Z,4.00
2019-03-01T20:43:01.288Z,3.00
2019-03-01T20:48:03.118Z,3.50
2019-03-01T20:53:10.100Z,4.60
2019-03-01T20:58:13.381Z,4.00
2019-03-01T21:03:17.789Z,3.80
2019-03-01T21:08:22.240Z,3.50
2019-03-01T21:13:45.709Z,4.20
2019-03-01T21:32:04.512Z,3.00
2019-03-01T21:55:35.350Z,3.00
2019-03-01T22:00:47.455Z,3.00
2019-03-01T22:05:52.872Z,2.50
2019-03-01T22:10:57.604Z,2.50
2019-03-01T22:16:02.647Z,1.20
2019-03-01T22:21:12.598Z,2.60
2019-03-01T22:26:16.088Z,3.00
2019-03-01T22:31:20.918Z,2.00
2019-03-01T22:36:27.288Z,2.75
2019-03-01T22:41:35.592Z,3.00
2019-03-01T22:46:42.157Z,2.75
2019-03-01T22:51:49.610Z,1.80
2019-03-01T22:56:52.815Z,2.60
2019-03-01T23:02:04.475Z,2.00
2019-03-01T23:07:08.183Z,2.50
2019-03-01T23:12:14.765Z,1.60
2019-03-01T23:17:21.415Z,1.60
2019-03-01T23:22:28.089Z,2.00
2019-03-01T23:27:32.722Z,1.40
2019-03-01T23:32:37.172Z,2.00
2019-03-01T23:37:41.832Z,2.00
2019-03-01T23:42:46.377Z,2.80
2019-03-01T23:47:50.820Z,1.00
2019-03-01T23:52:58.705Z,1.80
2019-03-01T23:58:06.022Z,1.60
